createdAt,value
2017-03-05T00:04:00.954Z,0
2017-03-05T00:08:58.023Z,0
2017-03-05T00:13:54.673Z,0
2017-03-05T00:18:51.293Z,0
2017-03-05T00:23:47.790Z,0
2017-03-05T00:28:44.395Z,0
2017-03-05T00:33:40.958Z,0
2017-03-05T00:38:37.403Z,0
2017-03-05T00:43:33.883Z,0
2017-03-05T00:48:30.283Z,0
2017-03-05T00:53:26.713Z,0
2017-03-05T00:58:23.439Z,0
2017-03-05T01:03:19.957Z,0
2017-03-05T01:08:17.026Z,0
2017-03-05T01:13:13.649Z,0
2017-03-05T01:18:10.236Z,0
2017-03-05T01:23:06.653Z,0
2017-03-05T01:28:03.142Z,0
2017-03-05T01:33:00.809Z,0
2017-03-05T01:37:57.379Z,0
2017-03-05T01:42:53.738Z,0
2017-03-05T01:47:50.567Z,0
2017-03-05T01:52:47.425Z,0
2017-03-05T01:57:44.357Z,0
2017-03-05T02:07:46.062Z,0
2017-03-05T02:12:42.636Z,0
2017-03-05T02:17:39.195Z,0
2017-03-05T02:22:36.822Z,0
2017-03-05T02:27:33.677Z,0
2017-03-05T02:32:31.003Z,0
2017-03-05T02:37:28.152Z,0
2017-03-05T02:42:25.043Z,0
2017-03-05T02:47:22.191Z,0
2017-03-05T02:52:18.948Z,0
2017-03-05T02:57:16.526Z,0
2017-03-05T03:02:13.177Z,0
2017-03-05T03:07:10.035Z,0
2017-03-05T03:12:06.851Z,0
2017-03-05T03:17:03.550Z,0
2017-03-05T03:22:00.306Z,0
2017-03-05T03:26:57.456Z,0
2017-03-05T03:31:54.085Z,0
2017-03-05T03:36:50.593Z,0
2017-03-05T03:41:47.639Z,0
2017-03-05T03:46:44.445Z,0
2017-03-05T03:51:41.049Z,0
2017-03-05T03:56:37.922Z,0
2017-03-05T04:01:34.508Z,0
2017-03-05T04:06:31.318Z,0
2017-03-05T04:11:28.382Z,0
2017-03-05T04:16:24.848Z,0
2017-03-05T04:21:21.347Z,0
2017-03-05T04:26:18.445Z,0
2017-03-05T04:31:14.841Z,0
2017-03-05T04:36:11.565Z,0
2017-03-05T04:41:07.818Z,0
2017-03-05T04:46:04.942Z,0
2017-03-05T04:51:01.460Z,0
2017-03-05T04:55:59.114Z,0
2017-03-05T05:00:55.724Z,0
2017-03-05T05:05:52.394Z,0
2017-03-05T05:10:49.245Z,0
2017-03-05T05:15:46.840Z,0
2017-03-05T05:20:43.668Z,0
2017-03-05T05:25:39.963Z,0
2017-03-05T05:30:37.011Z,0
2017-03-05T05:35:33.648Z,0
2017-03-05T05:40:30.185Z,0
2017-03-05T05:45:26.839Z,0
2017-03-05T05:50:23.409Z,0
2017-03-05T05:55:20.022Z,0
2017-03-05T06:00:17.216Z,0
2017-03-05T06:05:14.185Z,0
2017-03-05T06:10:10.841Z,0
2017-03-05T06:15:08.393Z,0
2017-03-05T06:20:04.850Z,5
2017-03-05T06:25:01.440Z,5
2017-03-05T06:29:58.560Z,5
2017-03-05T06:34:55.218Z,5
2017-03-05T06:39:51.946Z,5
2017-03-05T06:44:49.492Z,10
2017-03-05T06:49:46.586Z,15
2017-03-05T06:54:44.249Z,25
2017-03-05T06:59:41.644Z,20
2017-03-05T07:04:38.098Z,30
2017-03-05T07:09:34.828Z,35
2017-03-05T07:14:31.657Z,35
2017-03-05T07:19:28.806Z,35
2017-03-05T07:24:25.707Z,40
2017-03-05T07:29:23.063Z,55
2017-03-05T07:34:20.509Z,90
2017-03-05T07:39:17.645Z,125
2017-03-05T07:44:14.928Z,125
2017-03-05T07:49:12.212Z,110
2017-03-05T07:54:08.861Z,100
2017-03-05T07:59:06.032Z,140
2017-03-05T08:04:02.583Z,245
2017-03-05T08:08:59.584Z,125
2017-03-05T08:13:56.562Z,135
2017-03-05T08:18:54.171Z,150
2017-03-05T08:23:50.477Z,140
2017-03-05T08:28:47.389Z,120
2017-03-05T08:33:44.690Z,160
2017-03-05T08:38:41.621Z,125
2017-03-05T08:43:38.177Z,90
2017-03-05T08:48:35.218Z,80
2017-03-05T08:53:31.725Z,100
2017-03-05T08:58:28.322Z,155
2017-03-05T09:03:25.861Z,150
2017-03-05T09:08:23.501Z,135
2017-03-05T09:13:20.157Z,180
2017-03-05T09:18:17.640Z,150
2017-03-05T09:23:17.244Z,195
2017-03-05T09:28:15.734Z,180
2017-03-05T09:33:12.470Z,370
2017-03-05T09:38:09.747Z,310
2017-03-05T09:43:06.563Z,430
2017-03-05T09:48:03.565Z,340
2017-03-05T09:53:00.957Z,495
2017-03-05T09:57:58.679Z,280
2017-03-05T10:02:56.089Z,820
2017-03-05T10:07:54.192Z,275
2017-03-05T10:12:53.584Z,175
2017-03-05T10:17:49.751Z,455
2017-03-05T10:22:49.239Z,260
2017-03-05T10:27:45.872Z,325
2017-03-05T10:32:42.929Z,505
2017-03-05T10:37:41.383Z,505
2017-03-05T10:42:39.573Z,365
2017-03-05T10:47:35.819Z,375
2017-03-05T10:52:32.882Z,195
2017-03-05T10:57:30.355Z,390
2017-03-05T11:02:26.808Z,465
2017-03-05T11:07:24.293Z,620
2017-03-05T11:12:22.572Z,935
2017-03-05T11:17:19.632Z,405
2017-03-05T11:22:15.672Z,690
2017-03-05T11:27:12.355Z,715
2017-03-05T11:32:09.924Z,810
2017-03-05T11:37:07.583Z,1080
2017-03-05T11:42:03.977Z,300
2017-03-05T11:47:00.868Z,345
2017-03-05T11:51:57.642Z,1160
2017-03-05T11:56:55.057Z,260
2017-03-05T12:01:51.589Z,525
2017-03-05T12:06:48.955Z,320
2017-03-05T12:11:45.120Z,180
2017-03-05T12:16:42.326Z,280
2017-03-05T12:21:38.712Z,270
2017-03-05T12:26:36.954Z,300
2017-03-05T12:31:33.799Z,545
2017-03-05T12:36:32.118Z,425
2017-03-05T12:41:29.816Z,310
2017-03-05T12:46:25.977Z,220
2017-03-05T12:51:24.004Z,215
2017-03-05T12:56:20.339Z,240
2017-03-05T13:01:17.629Z,155
2017-03-05T13:06:13.922Z,175
2017-03-05T13:11:10.600Z,155
2017-03-05T13:16:08.498Z,465
2017-03-05T13:21:05.258Z,350
2017-03-05T13:26:02.549Z,235
2017-03-05T13:30:59.461Z,155
2017-03-05T13:35:55.859Z,560
2017-03-05T13:40:53.757Z,265
2017-03-05T13:45:54.915Z,370
2017-03-05T13:50:50.187Z,355
2017-03-05T13:55:46.668Z,440
2017-03-05T14:00:46.472Z,230
2017-03-05T14:05:42.862Z,200
2017-03-05T14:10:39.397Z,400
2017-03-05T14:15:36.089Z,440
2017-03-05T14:20:33.337Z,195
2017-03-05T14:25:30.068Z,145
2017-03-05T14:30:26.931Z,160
2017-03-05T14:35:23.487Z,195
2017-03-05T14:40:21.159Z,190
2017-03-05T14:45:19.033Z,235
2017-03-05T14:50:16.667Z,260
2017-03-05T14:55:13.919Z,225
2017-03-05T15:00:10.834Z,160
2017-03-05T15:05:07.339Z,60
2017-03-05T15:10:03.582Z,55
2017-03-05T15:15:01.210Z,80
2017-03-05T15:19:57.888Z,90
2017-03-05T15:24:54.654Z,110
2017-03-05T15:29:50.719Z,70
2017-03-05T15:34:48.626Z,90
2017-03-05T15:39:45.024Z,95
2017-03-05T15:44:42.313Z,85
2017-03-05T15:49:39.253Z,70
2017-03-05T15:54:35.869Z,55
2017-03-05T15:59:32.367Z,50
2017-03-05T16:04:29.281Z,45
2017-03-05T16:09:25.974Z,25
2017-03-05T16:14:22.752Z,20
2017-03-05T16:19:22.268Z,20
2017-03-05T16:24:18.394Z,15
2017-03-05T16:29:16.173Z,10
2017-03-05T16:34:13.238Z,5
2017-03-05T16:39:09.801Z,5
2017-03-05T16:44:07.471Z,5
2017-03-05T16:49:04.735Z,5
2017-03-05T16:54:01.234Z,5
2017-03-05T16:58:58.074Z,5
2017-03-05T17:03:54.213Z,5
2017-03-05T17:08:52.044Z,0
2017-03-05T17:13:48.871Z,0
2017-03-05T17:18:45.183Z,0
2017-03-05T17:23:41.772Z,0
2017-03-05T17:28:38.372Z,0
2017-03-05T17:33:35.097Z,0
2017-03-05T17:38:31.664Z,0
2017-03-05T17:43:29.273Z,0
2017-03-05T17:48:25.715Z,0
2017-03-05T17:53:22.307Z,0
2017-03-05T17:58:20.032Z,0
2017-03-05T18:03:16.822Z,0
2017-03-05T18:08:13.318Z,0
2017-03-05T18:13:09.887Z,0
2017-03-05T18:18:06.854Z,0
2017-03-05T18:23:03.527Z,0
2017-03-05T18:28:00.145Z,0
2017-03-05T18:32:56.505Z,0
2017-03-05T18:37:53.048Z,0
2017-03-05T18:42:49.528Z,0
2017-03-05T18:47:45.531Z,0
2017-03-05T18:52:41.907Z,0
2017-03-05T18:57:38.255Z,0
2017-03-05T19:02:34.702Z,0
2017-03-05T19:07:31.102Z,0
2017-03-05T19:12:27.135Z,0
2017-03-05T19:17:23.595Z,0
2017-03-05T19:22:20.636Z,0
2017-03-05T19:27:16.925Z,0
2017-03-05T19:32:14.196Z,0
2017-03-05T19:37:10.575Z,0
2017-03-05T19:42:07.704Z,0
2017-03-05T19:47:06.725Z,0
2017-03-05T19:52:03.001Z,0
2017-03-05T19:57:00.406Z,0
2017-03-05T20:01:56.923Z,0
2017-03-05T20:06:53.784Z,0
2017-03-05T20:11:49.720Z,0
2017-03-05T20:16:46.144Z,0
2017-03-05T20:21:44.849Z,0
2017-03-05T20:26:41.374Z,0
2017-03-05T20:31:38.952Z,0
2017-03-05T20:36:35.102Z,0
2017-03-05T20:41:34.262Z,0
2017-03-05T20:46:30.775Z,0
2017-03-05T20:51:27.954Z,0
2017-03-05T20:56:25.646Z,0
2017-03-05T21:01:22.137Z,0
2017-03-05T21:06:19.140Z,0
2017-03-05T21:11:15.481Z,0
2017-03-05T21:16:13.193Z,0
2017-03-05T21:21:09.478Z,0
2017-03-05T21:26:06.737Z,0
2017-03-05T21:31:03.431Z,0
2017-03-05T21:36:00.738Z,0
2017-03-05T21:40:57.253Z,0
2017-03-05T21:45:53.773Z,0
2017-03-05T21:50:50.115Z,0
2017-03-05T21:55:47.007Z,0
2017-03-05T22:00:43.507Z,0
2017-03-05T22:05:41.060Z,0
2017-03-05T22:10:36.892Z,0
2017-03-05T22:15:33.757Z,0
2017-03-05T22:20:30.178Z,0
2017-03-05T22:25:26.915Z,0
2017-03-05T22:30:24.021Z,0
2017-03-05T22:35:20.547Z,0
2017-03-05T22:40:17.359Z,0
2017-03-05T22:45:14.034Z,0
2017-03-05T22:50:10.911Z,0
2017-03-05T22:55:07.944Z,0
2017-03-05T23:00:04.348Z,0
2017-03-05T23:05:00.984Z,0
2017-03-05T23:09:58.064Z,0
2017-03-05T23:14:55.977Z,0
2017-03-05T23:19:52.756Z,0
2017-03-05T23:24:49.241Z,0
2017-03-05T23:29:46.261Z,0
2017-03-05T23:34:44.434Z,0
2017-03-05T23:39:41.377Z,0
2017-03-05T23:44:38.435Z,0
2017-03-05T23:49:35.623Z,0
2017-03-05T23:54:32.652Z,0
2017-03-05T23:59:29.135Z,0
